createdAt,value
2018-01-02T00:00:32.239Z,0
2018-01-02T00:01:41.186Z,0
2018-01-02T00:02:50.127Z,0
2018-01-02T00:03:59.110Z,0
2018-01-02T00:05:08.054Z,0
2018-01-02T00:06:16.997Z,0
2018-01-02T00:07:26.193Z,0
2018-01-02T00:08:35.394Z,0
2018-01-02T00:09:44.323Z,0
2018-01-02T00:10:53.269Z,0
2018-01-02T00:12:02.457Z,0
2018-01-02T00:13:11.129Z,0
2018-01-02T00:14:20.123Z,0
2018-01-02T00:15:29.057Z,0
2018-01-02T00:16:38.010Z,0
2018-01-02T00:17:47.744Z,0
2018-01-02T00:18:56.928Z,0
2018-01-02T00:20:05.925Z,0
2018-01-02T00:21:15.141Z,0
2018-01-02T00:22:24.865Z,0
2018-01-02T00:23:33.545Z,0
2018-01-02T00:24:42.228Z,0
2018-01-02T00:25:51.163Z,0
2018-01-02T00:27:00.616Z,0
2018-01-02T00:28:10.075Z,0
2018-01-02T00:29:18.747Z,0
2018-01-02T00:30:27.679Z,0
2018-01-02T00:31:36.348Z,0
2018-01-02T00:32:45.543Z,0
2018-01-02T00:33:54.218Z,0
2018-01-02T00:35:03.158Z,0
2018-01-02T00:36:12.361Z,0
2018-01-02T00:37:21.033Z,0
2018-01-02T00:38:30.252Z,0
2018-01-02T00:39:38.942Z,0
2018-01-02T00:40:47.620Z,0
2018-01-02T00:41:56.559Z,0
2018-01-02T00:43:05.501Z,0
2018-01-02T00:44:14.442Z,0
2018-01-02T00:45:23.380Z,0
2018-01-02T00:46:32.057Z,0
2018-01-02T00:47:41.067Z,0
2018-01-02T00:48:50.022Z,0
2018-01-02T00:49:59.210Z,0
2018-01-02T00:51:08.407Z,0
2018-01-02T00:52:17.077Z,0
2018-01-02T00:53:25.761Z,0
2018-01-02T00:54:34.694Z,0
2018-01-02T00:55:43.642Z,0
2018-01-02T00:56:52.321Z,0
2018-01-02T00:58:01.519Z,0
2018-01-02T00:59:10.982Z,0
2018-01-02T01:00:19.663Z,0
2018-01-02T01:01:28.598Z,0
2018-01-02T01:02:37.272Z,0
2018-01-02T01:03:46.462Z,0
2018-01-02T01:04:55.406Z,0
2018-01-02T01:06:04.084Z,0
2018-01-02T01:07:12.772Z,0
2018-01-02T01:08:21.709Z,0
2018-01-02T01:09:30.909Z,0
2018-01-02T01:10:40.103Z,0
2018-01-02T01:11:48.774Z,0
2018-01-02T01:12:57.460Z,0
2018-01-02T01:16:39.587Z,0
2018-01-02T01:17:48.538Z,0
2018-01-02T01:18:57.722Z,0
2018-01-02T01:20:06.927Z,0
2018-01-02T01:21:16.642Z,0
2018-01-02T01:22:26.095Z,0
2018-01-02T01:26:07.132Z,0
2018-01-02T01:27:16.072Z,0
2018-01-02T01:28:25.007Z,0
2018-01-02T01:29:33.936Z,0
2018-01-02T01:30:43.148Z,0
2018-01-02T01:31:53.126Z,0
2018-01-02T01:33:02.062Z,0
2018-01-02T01:34:11.272Z,0
2018-01-02T01:35:20.211Z,0
2018-01-02T01:36:28.880Z,0
2018-01-02T01:37:38.075Z,0
2018-01-02T01:38:47.008Z,0
2018-01-02T01:39:55.676Z,0
2018-01-02T01:41:04.883Z,0
2018-01-02T01:42:13.565Z,0
2018-01-02T01:43:22.236Z,0
2018-01-02T01:44:31.436Z,0
2018-01-02T01:45:40.400Z,0
2018-01-02T01:46:49.335Z,0
2018-01-02T01:47:58.611Z,0
2018-01-02T01:49:07.550Z,0
2018-01-02T01:50:17.002Z,0
2018-01-02T01:51:25.950Z,0
2018-01-02T01:52:35.139Z,0
2018-01-02T01:53:43.814Z,0
2018-01-02T01:54:52.495Z,0
2018-01-02T01:56:01.430Z,0
2018-01-02T01:57:10.632Z,0
2018-01-02T01:58:19.572Z,0
2018-01-02T01:59:28.766Z,0
2018-01-02T02:00:38.678Z,0
2018-01-02T02:01:47.620Z,0
2018-01-02T02:02:56.285Z,0
2018-01-02T02:04:05.225Z,0
2018-01-02T02:05:14.170Z,0
2018-01-02T02:06:23.109Z,0
2018-01-02T02:07:32.298Z,0
2018-01-02T02:08:40.978Z,0
2018-01-02T02:09:49.914Z,0
2018-01-02T02:10:59.624Z,0
2018-01-02T02:12:08.565Z,0
2018-01-02T02:13:17.768Z,0
2018-01-02T02:14:26.443Z,0
2018-01-02T02:15:35.376Z,0
2018-01-02T02:16:44.575Z,0
2018-01-02T02:17:54.042Z,0
2018-01-02T02:19:02.794Z,0
2018-01-02T02:20:11.756Z,0
2018-01-02T02:21:20.952Z,0
2018-01-02T02:22:29.880Z,0
2018-01-02T02:23:38.811Z,0
2018-01-02T02:24:48.014Z,0
2018-01-02T02:25:56.947Z,0
2018-01-02T02:27:05.889Z,0
2018-01-02T02:28:15.086Z,0
2018-01-02T02:29:23.757Z,0
2018-01-02T02:30:32.438Z,0
2018-01-02T02:31:41.372Z,0
2018-01-02T02:32:50.828Z,0
2018-01-02T02:33:59.510Z,0
2018-01-02T02:35:08.455Z,0
2018-01-02T02:36:17.660Z,0
2018-01-02T02:37:26.339Z,0
2018-01-02T02:38:35.006Z,0
2018-01-02T02:39:43.951Z,0
2018-01-02T02:40:52.898Z,0
2018-01-02T02:42:01.570Z,0
2018-01-02T02:43:11.039Z,0
2018-01-02T02:44:19.976Z,0
2018-01-02T02:45:28.650Z,0
2018-01-02T02:46:37.582Z,0
2018-01-02T02:47:46.775Z,0
2018-01-02T02:48:55.512Z,0
2018-01-02T02:50:04.447Z,0
2018-01-02T02:51:13.399Z,0
2018-01-02T02:52:22.337Z,0
2018-01-02T02:53:31.282Z,0
2018-01-02T02:54:40.220Z,0
2018-01-02T02:55:48.917Z,0
2018-01-02T02:56:57.685Z,0
2018-01-02T02:58:07.146Z,0
2018-01-02T02:59:16.074Z,0
2018-01-02T03:00:25.010Z,0
2018-01-02T03:01:34.206Z,0
2018-01-02T03:02:43.147Z,0
2018-01-02T03:03:52.092Z,0
2018-01-02T03:05:00.776Z,0
2018-01-02T03:06:09.971Z,0
2018-01-02T03:07:18.647Z,0
2018-01-02T03:08:27.846Z,0
2018-01-02T03:09:37.034Z,0
2018-01-02T03:10:52.345Z,0
2018-01-02T03:12:01.537Z,0
2018-01-02T03:13:10.736Z,0
2018-01-02T03:14:19.402Z,0
2018-01-02T03:15:28.328Z,0
2018-01-02T03:16:37.274Z,0
2018-01-02T03:17:45.952Z,0
2018-01-02T03:18:55.142Z,0
2018-01-02T03:20:04.077Z,0
2018-01-02T03:21:12.749Z,0
2018-01-02T03:22:21.425Z,0
2018-01-02T03:23:30.368Z,0
2018-01-02T03:24:39.300Z,0
2018-01-02T03:25:47.970Z,0
2018-01-02T03:26:56.904Z,0
2018-01-02T03:28:05.577Z,0
2018-01-02T03:29:14.515Z,0
2018-01-02T03:30:24.002Z,0
2018-01-02T03:31:32.677Z,0
2018-01-02T03:32:41.354Z,0
2018-01-02T03:33:50.552Z,0
2018-01-02T03:34:59.731Z,0
2018-01-02T03:36:08.662Z,0
2018-01-02T03:37:17.402Z,0
2018-01-02T03:38:26.365Z,0
2018-01-02T03:39:35.561Z,0
2018-01-02T03:40:44.763Z,0
2018-01-02T03:41:53.955Z,0
2018-01-02T03:43:02.632Z,0
2018-01-02T03:44:11.820Z,0
2018-01-02T03:45:21.016Z,0
2018-01-02T03:46:30.474Z,0
2018-01-02T03:47:39.461Z,0
2018-01-02T03:48:48.631Z,0
2018-01-02T03:49:57.564Z,0
2018-01-02T03:51:06.242Z,0
2018-01-02T03:52:15.173Z,0
2018-01-02T03:53:24.370Z,0
2018-01-02T03:54:33.568Z,0
2018-01-02T03:55:42.502Z,0
2018-01-02T03:56:51.443Z,0
2018-01-02T03:58:00.642Z,0
2018-01-02T03:59:09.577Z,0
2018-01-02T04:00:18.777Z,0
2018-01-02T04:01:27.727Z,0
2018-01-02T04:02:36.658Z,0
2018-01-02T04:03:45.856Z,0
2018-01-02T04:04:55.056Z,0
2018-01-02T04:06:04.266Z,0
2018-01-02T04:07:13.465Z,0
2018-01-02T04:08:22.478Z,0
2018-01-02T04:09:31.150Z,0
2018-01-02T04:10:40.093Z,0
2018-01-02T04:11:49.312Z,0
2018-01-02T04:12:58.503Z,0
2018-01-02T04:14:07.446Z,0
2018-01-02T04:15:16.645Z,0
2018-01-02T04:16:25.585Z,0
2018-01-02T04:17:34.267Z,0
2018-01-02T04:18:43.205Z,0
2018-01-02T04:19:52.407Z,0
2018-01-02T04:21:01.079Z,0
2018-01-02T04:22:09.768Z,0
2018-01-02T04:23:18.706Z,0
2018-01-02T04:24:27.915Z,0
2018-01-02T04:25:37.111Z,0
2018-01-02T04:26:46.046Z,0
2018-01-02T04:27:54.973Z,0
2018-01-02T04:29:04.178Z,0
2018-01-02T04:30:13.373Z,0
2018-01-02T04:31:22.568Z,0
2018-01-02T04:32:31.760Z,0
2018-01-02T04:33:40.724Z,0
2018-01-02T04:34:49.399Z,0
2018-01-02T04:35:58.338Z,0
2018-01-02T04:37:07.545Z,0
2018-01-02T04:38:16.744Z,0
2018-01-02T04:39:25.408Z,0
2018-01-02T04:40:34.611Z,0
2018-01-02T04:41:44.088Z,0
2018-01-02T04:42:53.297Z,0
2018-01-02T04:44:01.995Z,0
2018-01-02T04:45:11.204Z,0
2018-01-02T04:46:20.410Z,0
2018-01-02T04:47:29.081Z,0
2018-01-02T04:48:38.008Z,0
2018-01-02T04:49:46.939Z,0
2018-01-02T04:50:55.886Z,0
2018-01-02T04:52:05.092Z,0
2018-01-02T04:53:14.103Z,0
2018-01-02T04:54:22.776Z,0
2018-01-02T04:55:31.711Z,0
2018-01-02T04:56:40.922Z,0
2018-01-02T04:57:50.119Z,0
2018-01-02T04:58:59.081Z,0
2018-01-02T05:00:08.542Z,0
2018-01-02T05:01:17.477Z,0
2018-01-02T05:02:26.681Z,0
2018-01-02T05:03:36.442Z,0
2018-01-02T05:04:45.925Z,0
2018-01-02T05:05:55.119Z,0
2018-01-02T05:07:03.796Z,0
2018-01-02T05:08:13.268Z,0
2018-01-02T05:09:22.478Z,0
2018-01-02T05:10:31.160Z,0
2018-01-02T05:11:40.097Z,0
2018-01-02T05:12:49.298Z,0
2018-01-02T05:13:58.247Z,0
2018-01-02T05:15:07.437Z,0
2018-01-02T05:16:16.392Z,0
2018-01-02T05:17:25.341Z,0
2018-01-02T05:18:34.288Z,0
2018-01-02T05:19:43.231Z,0
2018-01-02T05:20:52.166Z,0
2018-01-02T05:22:00.853Z,0
2018-01-02T05:23:09.528Z,0
2018-01-02T05:24:18.474Z,0
2018-01-02T05:25:27.683Z,0
2018-01-02T05:26:36.355Z,0
2018-01-02T05:27:45.046Z,0
2018-01-02T05:28:54.758Z,0
2018-01-02T05:30:03.702Z,0
2018-01-02T05:31:12.383Z,0
2018-01-02T05:32:21.079Z,0
2018-01-02T05:33:30.020Z,0
2018-01-02T05:34:38.953Z,0
2018-01-02T05:35:48.172Z,0
2018-01-02T05:36:57.191Z,0
2018-01-02T05:38:06.409Z,0
2018-01-02T05:39:15.353Z,0
2018-01-02T05:40:24.555Z,0
2018-01-02T05:41:34.272Z,0
2018-01-02T05:42:43.473Z,0
2018-01-02T05:43:52.158Z,0
2018-01-02T05:45:00.835Z,0
2018-01-02T05:46:10.038Z,0
2018-01-02T05:47:19.502Z,0
2018-01-02T05:48:28.996Z,0
2018-01-02T05:49:38.197Z,0
2018-01-02T05:50:47.651Z,0
2018-01-02T05:51:56.852Z,0
2018-01-02T05:53:05.538Z,0
2018-01-02T05:54:15.251Z,0
2018-01-02T05:55:24.192Z,0
2018-01-02T05:56:32.877Z,0
2018-01-02T05:57:41.540Z,0
2018-01-02T05:58:50.223Z,0
2018-01-02T05:59:59.420Z,0
2018-01-02T06:01:08.624Z,0
2018-01-02T06:02:17.561Z,0
2018-01-02T06:03:26.242Z,0
2018-01-02T06:04:34.929Z,0
2018-01-02T06:05:43.860Z,0
2018-01-02T06:06:53.334Z,0
2018-01-02T06:08:02.788Z,0
2018-01-02T06:09:12.001Z,0
2018-01-02T06:10:21.192Z,0
2018-01-02T06:11:30.430Z,0
2018-01-02T06:12:39.365Z,0
2018-01-02T06:13:48.571Z,0
2018-01-02T06:14:57.272Z,0
2018-01-02T06:16:06.211Z,0
2018-01-02T06:17:14.878Z,0
2018-01-02T06:18:24.073Z,0
2018-01-02T06:19:33.325Z,0
2018-01-02T06:20:42.793Z,0
2018-01-02T06:21:51.461Z,0
2018-01-02T06:23:00.927Z,0
2018-01-02T06:24:09.857Z,0
2018-01-02T06:25:19.316Z,0
2018-01-02T06:26:27.991Z,0
2018-01-02T06:27:36.920Z,0
2018-01-02T06:28:46.113Z,0
2018-01-02T06:29:55.317Z,0
2018-01-02T06:31:04.513Z,0
2018-01-02T06:32:13.464Z,0
2018-01-02T06:33:22.415Z,0
2018-01-02T06:34:31.362Z,0
2018-01-02T06:35:40.295Z,0
2018-01-02T06:36:48.980Z,0
2018-01-02T06:37:57.930Z,0
2018-01-02T06:39:07.386Z,0
2018-01-02T06:40:16.325Z,0
2018-01-02T06:41:25.277Z,0
2018-01-02T06:42:34.239Z,0
2018-01-02T06:43:42.922Z,0
2018-01-02T06:44:52.121Z,0
2018-01-02T06:46:00.802Z,0
2018-01-02T06:47:09.745Z,0
2018-01-02T06:48:18.688Z,0
2018-01-02T06:49:27.371Z,0
2018-01-02T06:50:36.577Z,0
2018-01-02T06:51:45.512Z,0
2018-01-02T06:52:54.717Z,0
2018-01-02T06:54:03.399Z,0
2018-01-02T06:55:12.079Z,0
2018-01-02T06:56:20.760Z,0
2018-01-02T06:57:29.971Z,0
2018-01-02T06:58:38.911Z,0
2018-01-02T06:59:48.380Z,0
2018-01-02T07:00:58.092Z,0
2018-01-02T07:02:06.778Z,0
2018-01-02T07:03:15.722Z,0
2018-01-02T07:04:24.925Z,0
2018-01-02T07:05:33.874Z,0
2018-01-02T07:06:42.809Z,0
2018-01-02T07:07:51.486Z,0
2018-01-02T07:09:00.166Z,0
2018-01-02T07:10:08.847Z,0
2018-01-02T07:11:18.052Z,0
2018-01-02T07:12:26.718Z,0
2018-01-02T07:13:35.653Z,0
2018-01-02T07:14:44.590Z,4
2018-01-02T07:15:53.533Z,4
2018-01-02T07:17:02.237Z,4
2018-01-02T07:18:11.137Z,4
2018-01-02T07:19:19.893Z,0
2018-01-02T07:20:29.087Z,4
2018-01-02T07:21:37.773Z,4
2018-01-02T07:22:46.719Z,4
2018-01-02T07:23:55.645Z,4
2018-01-02T07:25:04.585Z,4
2018-01-02T07:26:13.254Z,4
2018-01-02T07:27:22.187Z,4
2018-01-02T07:28:31.380Z,4
2018-01-02T07:29:40.055Z,4
2018-01-02T07:30:48.990Z,4
2018-01-02T07:31:57.932Z,8
2018-01-02T07:33:07.135Z,4
2018-01-02T07:34:16.331Z,4
2018-01-02T07:35:25.263Z,8
2018-01-02T07:36:34.205Z,8
2018-01-02T07:37:42.890Z,12
2018-01-02T07:38:51.837Z,16
2018-01-02T07:40:01.034Z,16
2018-01-02T07:41:09.975Z,20
2018-01-02T07:42:19.175Z,24
2018-01-02T07:43:28.114Z,28
2018-01-02T07:44:37.047Z,24
2018-01-02T07:45:45.742Z,24
2018-01-02T07:46:54.677Z,24
2018-01-02T07:48:03.613Z,24
2018-01-02T07:49:12.291Z,28
2018-01-02T07:50:21.752Z,24
2018-01-02T07:51:30.704Z,24
2018-01-02T07:52:39.378Z,24
2018-01-02T07:53:48.306Z,28
2018-01-02T07:54:57.241Z,28
2018-01-02T07:56:06.168Z,32
2018-01-02T07:57:14.835Z,32
2018-01-02T07:58:24.309Z,36
2018-01-02T07:59:32.988Z,28
2018-01-02T08:00:41.731Z,24
2018-01-02T08:01:50.939Z,24
2018-01-02T08:02:59.868Z,24
2018-01-02T08:04:08.809Z,24
2018-01-02T08:05:18.048Z,24
2018-01-02T08:06:27.305Z,24
2018-01-02T08:07:36.243Z,20
2018-01-02T08:08:45.173Z,24
2018-01-02T08:09:54.118Z,28
2018-01-02T08:11:02.800Z,28
2018-01-02T08:12:11.743Z,36
2018-01-02T08:13:20.684Z,40
2018-01-02T08:14:29.693Z,56
2018-01-02T08:15:38.888Z,68
2018-01-02T08:16:47.570Z,72
2018-01-02T08:17:56.241Z,80
2018-01-02T08:19:05.443Z,60
2018-01-02T08:20:14.387Z,64
2018-01-02T08:21:23.075Z,64
2018-01-02T08:22:31.744Z,56
2018-01-02T08:23:41.215Z,60
2018-01-02T08:24:50.152Z,64
2018-01-02T08:25:59.349Z,76
2018-01-02T08:27:08.071Z,80
2018-01-02T08:28:16.716Z,92
2018-01-02T08:29:25.656Z,108
2018-01-02T08:30:34.339Z,120
2018-01-02T08:31:43.021Z,124
2018-01-02T08:32:51.710Z,132
2018-01-02T08:34:01.216Z,112
2018-01-02T08:35:10.527Z,88
2018-01-02T08:36:19.205Z,88
2018-01-02T08:37:28.170Z,80
2018-01-02T08:38:36.846Z,64
2018-01-02T08:39:46.210Z,64
2018-01-02T08:40:55.960Z,84
2018-01-02T08:42:05.706Z,96
2018-01-02T08:43:14.621Z,112
2018-01-02T08:44:23.552Z,104
2018-01-02T08:45:32.772Z,132
2018-01-02T08:46:42.074Z,152
2018-01-02T08:47:51.287Z,164
2018-01-02T08:49:00.229Z,152
2018-01-02T08:50:08.924Z,156
2018-01-02T08:51:17.868Z,152
2018-01-02T08:52:26.812Z,140
2018-01-02T08:53:35.763Z,132
2018-01-02T08:54:44.706Z,124
2018-01-02T08:55:53.922Z,124
2018-01-02T08:57:02.862Z,140
2018-01-02T08:58:12.065Z,156
2018-01-02T08:59:20.755Z,176
2018-01-02T09:00:29.692Z,188
2018-01-02T09:01:38.370Z,180
2018-01-02T09:02:47.308Z,160
2018-01-02T09:03:56.506Z,184
2018-01-02T09:05:05.437Z,180
2018-01-02T09:06:14.368Z,168
2018-01-02T09:07:23.323Z,208
2018-01-02T09:08:32.041Z,208
2018-01-02T09:09:40.984Z,260
2018-01-02T09:10:49.661Z,268
2018-01-02T09:11:58.851Z,220
2018-01-02T09:13:07.533Z,208
2018-01-02T09:14:16.469Z,188
2018-01-02T09:15:25.410Z,172
2018-01-02T09:16:34.922Z,184
2018-01-02T09:17:43.919Z,212
2018-01-02T09:18:52.603Z,260
2018-01-02T09:20:01.538Z,296
2018-01-02T09:21:10.476Z,368
2018-01-02T09:22:19.665Z,412
2018-01-02T09:23:28.604Z,432
2018-01-02T09:24:38.071Z,352
2018-01-02T09:25:47.005Z,228
2018-01-02T09:26:56.470Z,216
2018-01-02T09:28:05.663Z,228
2018-01-02T09:29:15.416Z,232
2018-01-02T09:30:24.374Z,264
2018-01-02T09:31:33.812Z,220
2018-01-02T09:32:43.318Z,204
2018-01-02T09:33:52.811Z,212
2018-01-02T09:35:02.090Z,184
2018-01-02T09:36:11.727Z,172
2018-01-02T09:37:21.286Z,188
2018-01-02T09:38:30.481Z,204
2018-01-02T09:39:39.681Z,220
2018-01-02T09:40:48.623Z,244
2018-01-02T09:41:57.818Z,268
2018-01-02T09:43:07.010Z,304
2018-01-02T09:44:15.940Z,300
2018-01-02T09:45:24.674Z,348
2018-01-02T09:46:34.824Z,396
2018-01-02T09:47:44.285Z,424
2018-01-02T09:48:53.758Z,472
2018-01-02T09:50:03.043Z,612
2018-01-02T09:51:12.049Z,652
2018-01-02T09:52:20.735Z,584
2018-01-02T09:53:29.666Z,580
2018-01-02T09:54:38.887Z,700
2018-01-02T09:55:47.557Z,692
2018-01-02T09:56:56.588Z,636
2018-01-02T09:58:05.797Z,612
2018-01-02T09:59:14.468Z,640
2018-01-02T10:00:23.679Z,660
2018-01-02T10:01:32.610Z,688
2018-01-02T10:02:41.815Z,816
2018-01-02T10:03:51.281Z,912
2018-01-02T10:05:00.479Z,904
2018-01-02T10:06:09.418Z,956
2018-01-02T10:07:18.373Z,1020
2018-01-02T10:08:27.097Z,1096
2018-01-02T10:09:36.293Z,1000
2018-01-02T10:10:45.222Z,872
2018-01-02T10:11:54.673Z,900
2018-01-02T10:13:03.604Z,1084
2018-01-02T10:14:12.534Z,1028
2018-01-02T10:15:21.470Z,996
2018-01-02T10:16:30.168Z,916
2018-01-02T10:17:39.351Z,1032
2018-01-02T10:18:48.020Z,1156
2018-01-02T10:19:56.698Z,1156
2018-01-02T10:21:05.374Z,984
2018-01-02T10:22:14.061Z,816
2018-01-02T10:23:23.523Z,800
2018-01-02T10:24:32.460Z,776
2018-01-02T10:25:41.692Z,796
2018-01-02T10:26:50.894Z,868
2018-01-02T10:27:59.571Z,876
2018-01-02T10:29:09.285Z,824
2018-01-02T10:30:18.739Z,868
2018-01-02T10:31:28.181Z,908
2018-01-02T10:32:37.377Z,904
2018-01-02T10:33:46.316Z,872
2018-01-02T10:34:55.253Z,728
2018-01-02T10:36:03.927Z,644
2018-01-02T10:37:12.877Z,736
2018-01-02T10:38:21.914Z,1008
2018-01-02T10:39:31.799Z,1120
2018-01-02T10:40:40.998Z,1012
2018-01-02T10:41:50.187Z,844
2018-01-02T10:42:59.129Z,796
2018-01-02T10:44:08.075Z,812
2018-01-02T10:45:16.990Z,804
2018-01-02T10:46:25.995Z,752
2018-01-02T10:47:34.673Z,772
2018-01-02T10:48:43.605Z,804
2018-01-02T10:49:52.527Z,780
2018-01-02T10:51:01.207Z,776
2018-01-02T10:52:10.140Z,804
2018-01-02T10:53:19.073Z,820
2018-01-02T10:54:28.000Z,800
2018-01-02T10:55:37.025Z,788
2018-01-02T10:56:46.211Z,768
2018-01-02T10:57:55.146Z,792
2018-01-02T10:59:04.345Z,832
2018-01-02T11:00:13.019Z,828
2018-01-02T11:01:21.693Z,832
2018-01-02T11:02:30.626Z,836
2018-01-02T11:03:39.310Z,844
2018-01-02T11:04:47.975Z,812
2018-01-02T11:05:56.948Z,812
2018-01-02T11:07:05.632Z,848
2018-01-02T11:08:14.657Z,964
2018-01-02T11:09:23.857Z,1056
2018-01-02T11:10:32.790Z,1072
2018-01-02T11:11:41.463Z,1140
2018-01-02T11:12:51.197Z,1096
2018-01-02T11:14:00.836Z,1084
2018-01-02T11:15:10.076Z,1052
2018-01-02T11:16:19.284Z,1056
2018-01-02T11:17:28.285Z,1060
2018-01-02T11:18:36.967Z,1084
2018-01-02T11:19:45.905Z,1064
2018-01-02T11:20:55.106Z,1016
2018-01-02T11:22:04.042Z,1008
2018-01-02T11:23:12.786Z,1004
2018-01-02T11:24:21.720Z,1024
2018-01-02T11:25:30.660Z,1024
2018-01-02T11:26:39.331Z,960
2018-01-02T11:27:48.526Z,888
2018-01-02T11:28:57.547Z,928
2018-01-02T11:30:06.751Z,724
2018-01-02T11:31:15.956Z,628
2018-01-02T11:32:24.685Z,648
2018-01-02T11:33:33.575Z,604
2018-01-02T11:34:42.265Z,552
2018-01-02T11:35:51.227Z,504
2018-01-02T11:37:00.160Z,424
2018-01-02T11:38:08.840Z,456
2018-01-02T11:39:17.783Z,468
2018-01-02T11:40:26.726Z,468
2018-01-02T11:41:35.655Z,452
2018-01-02T11:42:44.325Z,416
2018-01-02T11:43:53.001Z,400
2018-01-02T11:45:01.932Z,380
2018-01-02T11:46:10.615Z,364
2018-01-02T11:47:19.556Z,356
2018-01-02T11:48:28.760Z,320
2018-01-02T11:49:37.963Z,320
2018-01-02T11:50:46.918Z,356
2018-01-02T11:51:55.594Z,384
2018-01-02T11:53:04.533Z,424
2018-01-02T11:54:13.728Z,480
2018-01-02T11:55:22.928Z,508
2018-01-02T11:56:32.395Z,536
2018-01-02T11:57:41.073Z,576
2018-01-02T11:58:50.564Z,620
2018-01-02T11:59:59.506Z,596
2018-01-02T12:01:08.697Z,652
2018-01-02T12:02:17.629Z,664
2018-01-02T12:03:26.569Z,648
2018-01-02T12:04:35.767Z,648
2018-01-02T12:05:44.444Z,656
2018-01-02T12:06:53.375Z,584
2018-01-02T12:08:02.046Z,632
2018-01-02T12:09:10.786Z,724
2018-01-02T12:10:19.481Z,720
2018-01-02T12:11:28.409Z,760
2018-01-02T12:12:37.087Z,844
2018-01-02T12:13:46.289Z,1032
2018-01-02T12:14:55.237Z,1108
2018-01-02T12:16:04.428Z,1080
2018-01-02T12:17:13.099Z,1072
2018-01-02T12:18:21.766Z,860
2018-01-02T12:19:30.955Z,764
2018-01-02T12:20:40.152Z,808
2018-01-02T12:21:49.344Z,952
2018-01-02T12:22:58.293Z,1044
2018-01-02T12:24:07.479Z,984
2018-01-02T12:25:16.676Z,944
2018-01-02T12:26:25.612Z,960
2018-01-02T12:27:34.550Z,1020
2018-01-02T12:28:43.493Z,976
2018-01-02T12:29:52.691Z,948
2018-01-02T12:31:02.004Z,988
2018-01-02T12:32:11.139Z,1068
2018-01-02T12:33:20.068Z,1152
2018-01-02T12:34:29.130Z,1212
2018-01-02T12:35:37.745Z,1220
2018-01-02T12:36:46.680Z,1236
2018-01-02T12:37:55.890Z,1272
2018-01-02T12:39:05.082Z,1248
2018-01-02T12:40:14.283Z,1212
2018-01-02T12:41:22.969Z,1188
2018-01-02T12:42:31.916Z,1140
2018-01-02T12:43:40.928Z,1104
2018-01-02T12:44:49.869Z,1108
2018-01-02T12:45:58.548Z,1152
2018-01-02T12:47:07.739Z,1104
2018-01-02T12:48:16.938Z,1132
2018-01-02T12:49:25.881Z,1192
2018-01-02T12:50:35.704Z,1188
2018-01-02T12:51:44.381Z,1224
2018-01-02T12:52:53.304Z,1184
2018-01-02T12:54:02.518Z,1144
2018-01-02T12:55:11.722Z,996
2018-01-02T12:56:20.682Z,944
2018-01-02T12:57:30.154Z,776
2018-01-02T12:58:38.827Z,692
2018-01-02T12:59:47.501Z,624
2018-01-02T13:00:57.267Z,564
2018-01-02T13:02:06.956Z,576
2018-01-02T13:03:15.925Z,524
2018-01-02T13:04:24.599Z,460
2018-01-02T13:05:34.059Z,472
2018-01-02T13:06:42.992Z,492
2018-01-02T13:07:51.663Z,432
2018-01-02T13:09:00.868Z,428
2018-01-02T13:10:10.083Z,424
2018-01-02T13:11:19.117Z,444
2018-01-02T13:12:27.791Z,468
2018-01-02T13:13:37.604Z,504
2018-01-02T13:14:46.662Z,536
2018-01-02T13:15:56.164Z,560
2018-01-02T13:17:05.109Z,572
2018-01-02T13:18:14.306Z,568
2018-01-02T13:19:22.980Z,580
2018-01-02T13:20:32.174Z,552
2018-01-02T13:21:41.629Z,548
2018-01-02T13:22:50.816Z,520
2018-01-02T13:23:59.514Z,544
2018-01-02T13:25:08.687Z,532
2018-01-02T13:26:17.352Z,512
2018-01-02T13:27:26.041Z,508
2018-01-02T13:28:34.756Z,480
2018-01-02T13:29:44.209Z,512
2018-01-02T13:30:53.142Z,504
2018-01-02T13:32:02.082Z,512
2018-01-02T13:33:11.278Z,540
2018-01-02T13:34:20.218Z,496
2018-01-02T13:35:29.152Z,484
2018-01-02T13:36:38.090Z,492
2018-01-02T13:37:46.768Z,416
2018-01-02T13:38:55.966Z,352
2018-01-02T13:40:04.895Z,348
2018-01-02T13:41:14.086Z,412
2018-01-02T13:42:23.033Z,496
2018-01-02T13:43:32.045Z,532
2018-01-02T13:44:40.717Z,536
2018-01-02T13:45:50.738Z,568
2018-01-02T13:46:59.816Z,580
2018-01-02T13:48:09.117Z,620
2018-01-02T13:49:18.052Z,644
2018-01-02T13:50:27.251Z,656
2018-01-02T13:51:36.319Z,664
2018-01-02T13:52:45.022Z,680
2018-01-02T13:53:53.818Z,676
2018-01-02T13:55:03.128Z,652
2018-01-02T13:56:12.059Z,628
2018-01-02T13:57:22.148Z,604
2018-01-02T13:58:31.351Z,584
2018-01-02T13:59:40.618Z,572
2018-01-02T14:00:50.072Z,560
2018-01-02T14:01:59.015Z,552
2018-01-02T14:03:07.824Z,548
2018-01-02T14:04:17.042Z,540
2018-01-02T14:05:26.303Z,536
2018-01-02T14:06:35.256Z,528
2018-01-02T14:07:44.843Z,512
2018-01-02T14:08:53.931Z,492
2018-01-02T14:10:03.641Z,460
2018-01-02T14:11:12.674Z,428
2018-01-02T14:12:21.356Z,404
2018-01-02T14:13:30.163Z,384
2018-01-02T14:14:39.182Z,364
2018-01-02T14:15:48.383Z,352
2018-01-02T14:16:58.950Z,336
2018-01-02T14:18:08.680Z,328
2018-01-02T14:19:18.040Z,324
2018-01-02T14:20:27.012Z,324
2018-01-02T14:21:35.961Z,324
2018-01-02T14:22:44.909Z,320
2018-01-02T14:23:53.909Z,308
2018-01-02T14:25:03.564Z,308
2018-01-02T14:26:12.517Z,308
2018-01-02T14:27:21.707Z,304
2018-01-02T14:28:31.445Z,292
2018-01-02T14:29:42.164Z,284
2018-01-02T14:30:52.221Z,268
2018-01-02T14:32:01.462Z,260
2018-01-02T14:33:10.284Z,256
2018-01-02T14:34:19.220Z,252
2018-01-02T14:35:28.884Z,256
2018-01-02T14:36:38.416Z,256
2018-01-02T14:37:48.143Z,260
2018-01-02T14:38:57.372Z,264
2018-01-02T14:40:06.485Z,268
2018-01-02T14:41:16.006Z,268
2018-01-02T14:42:25.530Z,264
2018-01-02T14:43:35.627Z,272
2018-01-02T14:44:45.333Z,268
2018-01-02T14:45:54.032Z,260
2018-01-02T14:47:03.530Z,244
2018-01-02T14:48:12.731Z,232
2018-01-02T14:49:21.707Z,220
2018-01-02T14:50:30.972Z,216
2018-01-02T14:51:39.926Z,216
2018-01-02T14:52:48.605Z,220
2018-01-02T14:53:57.817Z,224
2018-01-02T14:55:07.284Z,232
2018-01-02T14:56:16.488Z,244
2018-01-02T14:57:25.429Z,244
2018-01-02T14:58:34.652Z,240
2018-01-02T14:59:43.606Z,228
2018-01-02T15:00:53.317Z,228
2018-01-02T15:02:02.529Z,228
2018-01-02T15:03:11.213Z,224
2018-01-02T15:04:20.145Z,212
2018-01-02T15:05:29.337Z,204
2018-01-02T15:06:38.544Z,192
2018-01-02T15:07:47.549Z,180
2018-01-02T15:08:56.494Z,168
2018-01-02T15:10:05.692Z,148
2018-01-02T15:11:14.629Z,136
2018-01-02T15:12:23.605Z,120
2018-01-02T15:13:32.498Z,108
2018-01-02T15:14:41.236Z,96
2018-01-02T15:15:50.693Z,84
2018-01-02T15:16:59.625Z,76
2018-01-02T15:18:08.571Z,72
2018-01-02T15:19:17.861Z,68
2018-01-02T15:20:27.031Z,56
2018-01-02T15:21:35.968Z,56
2018-01-02T15:22:45.156Z,48
2018-01-02T15:23:53.891Z,44
2018-01-02T15:25:02.826Z,40
2018-01-02T15:26:12.021Z,36
2018-01-02T15:27:21.224Z,36
2018-01-02T15:28:29.906Z,28
2018-01-02T15:29:39.363Z,28
2018-01-02T15:30:49.096Z,28
2018-01-02T15:31:58.294Z,24
2018-01-02T15:33:07.738Z,24
2018-01-02T15:34:16.679Z,24
2018-01-02T15:35:25.349Z,24
2018-01-02T15:36:34.035Z,20
2018-01-02T15:37:42.718Z,20
2018-01-02T15:38:51.936Z,16
2018-01-02T15:40:00.881Z,16
2018-01-02T15:41:10.333Z,12
2018-01-02T15:42:19.072Z,12
2018-01-02T15:43:28.271Z,8
2018-01-02T15:44:37.208Z,8
2018-01-02T15:45:45.898Z,8
2018-01-02T15:46:54.711Z,8
2018-01-02T15:48:03.392Z,4
2018-01-02T15:49:12.081Z,4
2018-01-02T15:50:21.286Z,4
2018-01-02T15:51:30.240Z,0
2018-01-02T15:52:38.915Z,4
2018-01-02T15:53:47.657Z,4
2018-01-02T15:54:56.342Z,4
2018-01-02T15:56:05.226Z,4
2018-01-02T15:57:15.362Z,0
2018-01-02T15:58:24.629Z,0
2018-01-02T15:59:34.096Z,0
2018-01-02T16:00:43.300Z,0
2018-01-02T16:01:52.250Z,0
2018-01-02T16:03:01.182Z,0
2018-01-02T16:04:10.394Z,0
2018-01-02T16:05:19.146Z,0
2018-01-02T16:06:28.404Z,0
2018-01-02T16:07:37.107Z,0
2018-01-02T16:08:46.062Z,0
2018-01-02T16:09:55.291Z,0
2018-01-02T16:11:05.009Z,0
2018-01-02T16:12:13.692Z,0
2018-01-02T16:13:23.624Z,0
2018-01-02T16:14:32.818Z,0
2018-01-02T16:15:42.471Z,0
2018-01-02T16:16:51.167Z,0
2018-01-02T16:18:00.369Z,0
2018-01-02T16:19:09.593Z,0
2018-01-02T16:20:18.805Z,0
2018-01-02T16:21:28.972Z,0
2018-01-02T16:22:37.672Z,0
2018-01-02T16:23:46.618Z,0
2018-01-02T16:24:56.142Z,0
2018-01-02T16:26:05.962Z,0
2018-01-02T16:27:15.198Z,0
2018-01-02T16:28:24.415Z,0
2018-01-02T16:29:33.368Z,0
2018-01-02T16:30:42.049Z,0